Hovedside
METAR-TAF:

METAR-TAF

Lufthavner :

Ermelo, Sør-Afrika

breddegrad: 26-29-44S, lengdegrad: 29-58-47E, høyde over havet: 1737 m

Gjeldene værobservasjon

Denne rapporten ble laget for 18 timer og 19 minutter siden, klokken 07:46 UTC
Vind 2 kt fra Sør-sørøst
Temperatur 15°C
Luftfuktighet 39%
Trykk 1032 hPa

METAR: FAEO 130746Z AUTO 15002KT //// // ////// 15/01 Q1032

Tid: 04:05 (02:05 UTC)


TAF: fraværende

Værobservasjoner og værvarsel for over 4000 flyplasser (METAR- og TAF-rapporter).

Tilgjengelige stasjoner er representert av de røde og gule prikkene på kartet.

Hold musepekeren over prikken for å se navnet på stasjonen.

Klikk så for å se værobservasjoner og -varsler.

For å forandre kartet kan du klikke på den grønne knappen med svart kryss for å zoome inn, på den grønne knappen med strek for å zoome ut, eller på de grønne pilene for å se tilstøtende kart.


METAR-TAF: